Altenburg, Missouri
Current Conditions -  °F | °C
As of 1:52 AM on Monday 26 Jan 2015 (Local Time) from KMDH Reporting Station
Overcast Overcast  
Wind Chill: 23°   Ceiling: 1500
Heat Index: 32°   Visibility: 10mi
Dew Point: 26°   Wind: 13mph
Humidity: 79%   Direction: 330°NNW
Pressure: 29.99"   Gusts: NA
Location:  37.63°N, 89.59°W
Report Text: KMDH 260752Z AUTO 33011KT 10SM OVC015 00/M03 A2999 RMK AO2 SLP158 T00001033
Loading
Personal Weather Stations






























Interactive Weather Map New forecast layout! Learn more

10-Day Weather Forecast

Advertisements
Track Severe Weather on mobile